createdAt,value
2023-05-14T00:00:51.070Z,45.7692
2023-05-14T00:01:52.500Z,45.7692
2023-05-14T00:02:53.943Z,46.7692
2023-05-14T00:03:55.321Z,42.3077
2023-05-14T00:04:56.663Z,44.6154
2023-05-14T00:05:58.109Z,42.8462
2023-05-14T00:06:59.626Z,45.6154
2023-05-14T00:08:01.001Z,42.0769
2023-05-14T00:09:02.356Z,39.6154
2023-05-14T00:10:03.832Z,41.0769
2023-05-14T00:11:05.205Z,37.8462
2023-05-14T00:12:06.742Z,44.1538
2023-05-14T00:13:08.143Z,41.3846
2023-05-14T00:14:09.513Z,43.9231
2023-05-14T00:15:10.872Z,42.6154
2023-05-14T00:16:12.398Z,40.4615
2023-05-14T00:17:13.769Z,41.6154
2023-05-14T00:18:15.251Z,43.3077
2023-05-14T00:19:16.671Z,42.0769
2023-05-14T00:20:18.117Z,41.9231
2023-05-14T00:21:19.393Z,44.6154
2023-05-14T00:22:20.897Z,43.5385
2023-05-14T00:23:22.351Z,44.8462
2023-05-14T00:24:23.719Z,37.6154
2023-05-14T00:25:25.085Z,44.3846
2023-05-14T00:26:26.631Z,43.3846
2023-05-14T00:27:28.064Z,44.6923
2023-05-14T00:28:29.485Z,43.5385
2023-05-14T00:29:30.891Z,45.4615
2023-05-14T00:30:32.254Z,40.4615
2023-05-14T00:31:33.813Z,46.2308
2023-05-14T00:32:35.144Z,44.6923
2023-05-14T00:33:36.560Z,41.2308
2023-05-14T00:34:37.954Z,41.3077
2023-05-14T00:35:39.401Z,42.9231
2023-05-14T00:36:40.816Z,40.6923
2023-05-14T00:37:42.282Z,41.6923
2023-05-14T00:38:43.615Z,39.0769
2023-05-14T00:39:45.080Z,39.3846
2023-05-14T00:40:46.472Z,44.3077
2023-05-14T00:41:47.840Z,42.7692
2023-05-14T00:42:49.271Z,43.5385
2023-05-14T00:43:50.834Z,40.3077
2023-05-14T00:44:52.183Z,43.7692
2023-05-14T00:45:53.678Z,44.9231
2023-05-14T00:46:55.097Z,43.4615
2023-05-14T00:47:56.519Z,40.3846
2023-05-14T00:48:57.928Z,43.5385
2023-05-14T00:49:59.349Z,43.1538
2023-05-14T00:51:00.739Z,42.9231
2023-05-14T00:52:02.200Z,41.0769
2023-05-14T00:53:03.643Z,46.1538
2023-05-14T00:54:05.805Z,39.6923
2023-05-14T00:55:06.584Z,41.7692
2023-05-14T00:56:07.841Z,42.0000
2023-05-14T00:57:09.307Z,41.7692
2023-05-14T00:58:10.742Z,40.6923
2023-05-14T00:59:12.193Z,42.1538
2023-05-14T01:00:13.500Z,39.6154
2023-05-14T01:01:14.980Z,39.2308
2023-05-14T01:02:16.479Z,37.0769
2023-05-14T01:03:18.007Z,40.3846
2023-05-14T01:04:19.273Z,38.3077
2023-05-14T01:05:20.755Z,41.8462
2023-05-14T01:06:22.090Z,42.0000
2023-05-14T01:07:23.520Z,41.5385
2023-05-14T01:08:25.046Z,40.0000
2023-05-14T01:09:26.397Z,42.4615
2023-05-14T01:10:27.810Z,42.1538
2023-05-14T01:11:29.282Z,35.3846
2023-05-14T01:12:30.701Z,38.0769
2023-05-14T01:13:32.049Z,43.4615
2023-05-14T01:14:33.476Z,39.6923
2023-05-14T01:15:34.903Z,39.9231
2023-05-14T01:16:36.382Z,36.6923
2023-05-14T01:17:37.811Z,42.2308
2023-05-14T01:18:39.288Z,38.6923
2023-05-14T01:19:40.664Z,43.5385
2023-05-14T01:20:42.071Z,41.2308
2023-05-14T01:21:43.458Z,38.9231
2023-05-14T01:22:44.943Z,37.0769
2023-05-14T01:23:46.324Z,38.4615
2023-05-14T01:24:47.733Z,37.6154
2023-05-14T01:25:49.222Z,37.0769
2023-05-14T01:26:50.527Z,36.5385
2023-05-14T01:27:52.109Z,35.9231
2023-05-14T01:28:53.416Z,41.3077
2023-05-14T01:29:54.833Z,40.5385
2023-05-14T01:30:56.407Z,38.1538
2023-05-14T01:31:58.906Z,36.0000
2023-05-14T01:32:59.197Z,34.1538
2023-05-14T01:34:00.612Z,34.6923
2023-05-14T01:35:02.084Z,37.6154
2023-05-14T01:36:04.370Z,36.0000
2023-05-14T01:37:04.952Z,42.3077
2023-05-14T01:38:06.408Z,37.6154
2023-05-14T01:39:07.788Z,35.8462
2023-05-14T01:40:09.143Z,39.6923
2023-05-14T01:41:10.634Z,39.9231
2023-05-14T01:42:12.064Z,36.4615
2023-05-14T01:43:13.489Z,38.6154
2023-05-14T01:44:14.898Z,42.6154
2023-05-14T01:45:16.286Z,41.9231
2023-05-14T01:46:17.808Z,40.0000
2023-05-14T01:47:19.886Z,40.8462
2023-05-14T01:48:20.567Z,36.1538
2023-05-14T01:49:21.958Z,33.3077
2023-05-14T01:50:23.689Z,37.5385
2023-05-14T01:51:24.853Z,35.0769
2023-05-14T01:52:26.283Z,39.0000
2023-05-14T01:53:27.631Z,37.8462
2023-05-14T01:54:29.144Z,41.0769
2023-05-14T01:55:30.472Z,36.1538
2023-05-14T01:56:31.959Z,34.6154
2023-05-14T01:57:33.446Z,36.3077
2023-05-14T01:58:34.757Z,37.3846
2023-05-14T01:59:36.118Z,40.6154
2023-05-14T02:00:37.614Z,32.2308
2023-05-14T02:01:39.131Z,34.6923
2023-05-14T02:02:40.476Z,32.3846
2023-05-14T02:03:42.006Z,39.6923
2023-05-14T02:04:43.321Z,34.3846
2023-05-14T02:05:44.686Z,29.6923
2023-05-14T02:06:46.852Z,33.9231
2023-05-14T02:07:47.669Z,35.1538
2023-05-14T02:08:48.977Z,36.9231
2023-05-14T02:09:50.473Z,40.4615
2023-05-14T02:10:51.823Z,39.6923
2023-05-14T02:11:53.353Z,37.2308
2023-05-14T02:12:54.685Z,36.8462
2023-05-14T02:13:56.162Z,32.5385
2023-05-14T02:14:57.613Z,32.3846
2023-05-14T02:15:59.121Z,37.6154
2023-05-14T02:17:00.429Z,37.6923
2023-05-14T02:18:01.993Z,33.1538
2023-05-14T02:19:03.378Z,35.9231
2023-05-14T02:20:04.677Z,35.6923
2023-05-14T02:21:06.080Z,32.1538
2023-05-14T02:22:07.569Z,36.4615
2023-05-14T02:23:08.932Z,36.8462
2023-05-14T02:24:10.314Z,33.9231
2023-05-14T02:25:11.778Z,34.8462
2023-05-14T02:26:13.253Z,32.8462
2023-05-14T02:27:14.776Z,31.7692
2023-05-14T02:28:16.047Z,32.4615
2023-05-14T02:29:17.483Z,33.6923
2023-05-14T02:30:18.859Z,32.2308
2023-05-14T02:31:20.395Z,30.2308
2023-05-14T02:32:21.827Z,36.6154
2023-05-14T02:33:23.322Z,34.3077
2023-05-14T02:34:24.599Z,33.1538
2023-05-14T02:35:26.068Z,35.4615
2023-05-14T02:36:27.420Z,32.3077
2023-05-14T02:37:28.992Z,29.4615
2023-05-14T02:38:30.292Z,30.7692
2023-05-14T02:39:31.643Z,29.2308
2023-05-14T02:40:33.107Z,31.5385
2023-05-14T02:41:34.593Z,28.9231
2023-05-14T02:42:35.990Z,31.0000
2023-05-14T02:43:37.440Z,34.1538
2023-05-14T02:44:38.722Z,31.0000
2023-05-14T02:45:40.306Z,33.3077
2023-05-14T02:46:41.719Z,33.1538
2023-05-14T02:47:43.945Z,27.3077
2023-05-14T02:48:45.333Z,27.3077
2023-05-14T02:49:45.831Z,30.3077
2023-05-14T02:50:47.420Z,32.7692
2023-05-14T02:51:48.778Z,29.7692
2023-05-14T02:52:50.293Z,30.6923
2023-05-14T02:53:51.696Z,30.4615
2023-05-14T02:54:53.814Z,29.2308
2023-05-14T02:55:54.546Z,29.0769
2023-05-14T02:56:55.908Z,26.0769
2023-05-14T02:57:57.356Z,30.7692
2023-05-14T02:58:59.417Z,28.3077
2023-05-14T03:00:00.052Z,27.4615
2023-05-14T03:01:01.647Z,23.0769
2023-05-14T03:02:03.093Z,22.2308
2023-05-14T03:03:04.467Z,28.6154
2023-05-14T03:04:05.899Z,23.3077
2023-05-14T03:05:07.286Z,27.7692
2023-05-14T03:06:08.728Z,26.2308
2023-05-14T03:07:10.116Z,23.6154
2023-05-14T03:08:11.449Z,29.0769
2023-05-14T03:09:12.956Z,26.1538
2023-05-14T03:10:14.407Z,28.0769
2023-05-14T03:11:15.792Z,26.7692
2023-05-14T03:12:17.246Z,25.9231
2023-05-14T03:13:18.552Z,23.8462
2023-05-14T03:14:20.063Z,25.1538
2023-05-14T03:15:21.414Z,26.3077
2023-05-14T03:16:22.930Z,27.2308
2023-05-14T03:17:24.274Z,22.1538
2023-05-14T03:18:25.855Z,24.9231
2023-05-14T03:19:27.160Z,25.6923
2023-05-14T03:20:28.593Z,26.8462
2023-05-14T03:21:30.020Z,25.0000
2023-05-14T03:22:31.425Z,20.0769
2023-05-14T03:23:33.366Z,22.0769
2023-05-14T03:24:34.289Z,22.2308
2023-05-14T03:25:35.702Z,22.9231
2023-05-14T03:26:37.076Z,23.0769
2023-05-14T03:27:38.551Z,21.1538
2023-05-14T03:28:39.977Z,22.6923
2023-05-14T03:29:41.416Z,21.9231
2023-05-14T03:30:42.920Z,23.5385
2023-05-14T03:31:44.240Z,19.0769
2023-05-14T03:32:45.642Z,22.4615
2023-05-14T03:33:47.048Z,22.6154
2023-05-14T03:34:48.486Z,22.5385
2023-05-14T03:35:49.920Z,19.2308
2023-05-14T03:36:51.283Z,21.6154
2023-05-14T03:37:52.753Z,25.0769
2023-05-14T03:38:54.180Z,18.6923
2023-05-14T03:39:55.668Z,18.2308
2023-05-14T03:40:57.014Z,21.6923
2023-05-14T03:41:58.441Z,21.7692
2023-05-14T03:42:59.827Z,18.5385
2023-05-14T03:44:01.320Z,18.9231
2023-05-14T03:45:02.760Z,16.6154
2023-05-14T03:46:04.139Z,14.9231
2023-05-14T03:47:05.605Z,18.0000
2023-05-14T03:48:07.102Z,16.3077
2023-05-14T03:49:08.482Z,17.6923
2023-05-14T03:50:09.958Z,15.6154
2023-05-14T03:51:11.259Z,17.6923
2023-05-14T03:52:12.695Z,14.0000
2023-05-14T03:53:14.093Z,15.0769
2023-05-14T03:54:15.549Z,16.1538
2023-05-14T03:55:17.024Z,19.6154
2023-05-14T03:56:18.285Z,21.1538
2023-05-14T03:57:19.756Z,17.2308
2023-05-14T03:58:21.237Z,17.8462
2023-05-14T03:59:22.651Z,14.3846
2023-05-14T04:00:24.333Z,11.7692
2023-05-14T04:01:25.505Z,17.6154
2023-05-14T04:02:27.046Z,20.5385
2023-05-14T04:03:28.407Z,18.2308
2023-05-14T04:04:29.828Z,20.4615
2023-05-14T04:05:31.904Z,20.8462
2023-05-14T04:06:32.607Z,20.2308
2023-05-14T04:07:34.014Z,15.6923
2023-05-14T04:08:35.509Z,19.5385
2023-05-14T04:09:36.938Z,17.2308
2023-05-14T04:10:38.448Z,14.6154
2023-05-14T04:11:39.792Z,18.5385
2023-05-14T04:12:41.184Z,14.6923
2023-05-14T04:13:42.569Z,16.4615
2023-05-14T04:14:44.046Z,21.0769
2023-05-14T04:15:46.354Z,20.1538
2023-05-14T04:16:46.980Z,22.6154
2023-05-14T04:17:48.350Z,18.1538
2023-05-14T04:18:49.780Z,20.2308
2023-05-14T04:19:51.141Z,21.0000
2023-05-14T04:20:52.609Z,22.6923
2023-05-14T04:21:54.033Z,19.8462
2023-05-14T04:22:55.352Z,19.6923
2023-05-14T04:23:56.871Z,22.4615
2023-05-14T04:24:58.393Z,25.8462
2023-05-14T04:25:59.681Z,27.3846
2023-05-14T04:27:01.150Z,29.4615
2023-05-14T04:28:02.514Z,23.5385
2023-05-14T04:29:03.884Z,22.3077
2023-05-14T04:30:05.380Z,24.6154
2023-05-14T04:31:06.831Z,26.0000
2023-05-14T04:32:08.307Z,27.0000
2023-05-14T04:33:09.748Z,28.6923
2023-05-14T04:34:11.076Z,22.8462
2023-05-14T04:35:12.561Z,28.6154
2023-05-14T04:36:13.957Z,26.0769
2023-05-14T04:37:15.289Z,26.7692
2023-05-14T04:38:16.762Z,31.5385
2023-05-14T04:39:18.217Z,27.0769
2023-05-14T04:40:19.704Z,31.0000
2023-05-14T04:41:21.145Z,26.9231
2023-05-14T04:42:22.443Z,29.6154
2023-05-14T04:43:23.934Z,30.0000
2023-05-14T04:44:25.315Z,29.6154
2023-05-14T04:45:26.819Z,27.3077
2023-05-14T04:46:28.369Z,31.8462
2023-05-14T04:47:29.762Z,32.0769
2023-05-14T04:48:31.052Z,32.6923
2023-05-14T04:49:32.534Z,26.6154
2023-05-14T04:50:33.900Z,32.8462
2023-05-14T04:51:35.386Z,32.6154
2023-05-14T04:52:36.749Z,30.2308
2023-05-14T04:53:38.217Z,31.1538
2023-05-14T04:54:39.716Z,30.7692
2023-05-14T04:55:40.958Z,35.3077
2023-05-14T04:56:42.582Z,32.4615
2023-05-14T04:57:43.901Z,32.6923
2023-05-14T04:58:45.284Z,31.2308
2023-05-14T04:59:46.770Z,36.5385
2023-05-14T05:00:48.253Z,35.4615
2023-05-14T05:01:49.698Z,34.9231
2023-05-14T05:02:51.029Z,29.3077
2023-05-14T05:03:52.368Z,33.1538
2023-05-14T05:04:53.880Z,31.0769
2023-05-14T05:05:55.322Z,28.6154
2023-05-14T05:06:56.745Z,30.6154
2023-05-14T05:07:58.188Z,33.2308
2023-05-14T05:09:01.845Z,36.6923
2023-05-14T05:10:00.991Z,33.1538
2023-05-14T05:11:02.464Z,37.2308
2023-05-14T05:12:03.866Z,36.4615
2023-05-14T05:13:05.376Z,30.4615
2023-05-14T05:14:06.826Z,32.7692
2023-05-14T05:15:08.137Z,35.4615
2023-05-14T05:16:09.723Z,31.9231
2023-05-14T05:17:11.012Z,31.3077
2023-05-14T05:18:12.467Z,40.4615
2023-05-14T05:19:13.981Z,35.0000
2023-05-14T05:20:15.377Z,32.2308
2023-05-14T05:21:16.650Z,34.0769
2023-05-14T05:22:18.947Z,34.6923
2023-05-14T05:23:19.491Z,29.0769
2023-05-14T05:24:20.962Z,28.3846
2023-05-14T05:25:22.389Z,30.0769
2023-05-14T05:26:23.802Z,34.3846
2023-05-14T05:27:25.237Z,35.2308
2023-05-14T05:28:26.664Z,36.1538
2023-05-14T05:29:28.031Z,34.6923
2023-05-14T05:30:29.475Z,36.1538
2023-05-14T05:31:30.970Z,37.6154
2023-05-14T05:32:32.487Z,30.0000
2023-05-14T05:33:33.839Z,35.3846
2023-05-14T05:34:35.255Z,38.3846
2023-05-14T05:35:36.710Z,41.9231
2023-05-14T05:36:38.039Z,40.1538
2023-05-14T05:37:39.565Z,39.6154
2023-05-14T05:38:40.973Z,36.2308
2023-05-14T05:39:42.390Z,39.2308
2023-05-14T05:40:43.774Z,39.1538
2023-05-14T05:41:45.353Z,40.3846
2023-05-14T05:42:46.613Z,36.7692
2023-05-14T05:43:48.190Z,38.6154
2023-05-14T05:44:49.591Z,33.0769
2023-05-14T05:45:51.002Z,32.1538
2023-05-14T05:46:52.386Z,31.6154
2023-05-14T05:47:53.874Z,34.5385
2023-05-14T05:48:55.130Z,41.0000
2023-05-14T05:49:56.612Z,44.4615
2023-05-14T05:50:57.986Z,39.4615
2023-05-14T05:51:59.459Z,36.0000
2023-05-14T05:53:00.934Z,46.7692
2023-05-14T05:54:02.470Z,40.1538
2023-05-14T05:55:03.781Z,40.8462
2023-05-14T05:56:05.123Z,39.1538
2023-05-14T05:57:06.578Z,43.3077
2023-05-14T05:58:08.030Z,35.9231
2023-05-14T05:59:09.468Z,40.6923
2023-05-14T06:00:10.869Z,41.9231
2023-05-14T06:01:12.255Z,40.9231
2023-05-14T06:02:13.773Z,39.5385
2023-05-14T06:03:15.163Z,39.0000
2023-05-14T06:04:16.609Z,45.7692
2023-05-14T06:05:18.007Z,48.6154
2023-05-14T06:06:19.535Z,48.9231
2023-05-14T06:07:20.794Z,51.9231
2023-05-14T06:08:22.273Z,57.6923
2023-05-14T06:09:23.664Z,65.6154
2023-05-14T06:10:25.374Z,72.6154
2023-05-14T06:11:26.497Z,80.3077
2023-05-14T06:12:27.953Z,79.5385
2023-05-14T06:13:29.350Z,78.4615
2023-05-14T06:14:30.829Z,84.6154
2023-05-14T06:15:32.165Z,88.6923
2023-05-14T06:16:33.697Z,93.3077
2023-05-14T06:17:35.063Z,104.6154
2023-05-14T06:18:36.582Z,117.6154
2023-05-14T06:19:37.969Z,115.7692
2023-05-14T06:20:39.389Z,115.8462
2023-05-14T06:21:40.680Z,114.4615
2023-05-14T06:22:42.122Z,115.3846
2023-05-14T06:23:43.625Z,124.1538
2023-05-14T06:24:45.017Z,128.3077
2023-05-14T06:25:46.570Z,135.3846
2023-05-14T06:26:47.849Z,142.9231
2023-05-14T06:27:49.258Z,154.9231
2023-05-14T06:28:50.624Z,157.3077
2023-05-14T06:29:52.069Z,160.3077
2023-05-14T06:30:53.514Z,155.6154
2023-05-14T06:31:54.999Z,154.1538
2023-05-14T06:32:56.335Z,165.5385
2023-05-14T06:33:57.645Z,171.7692
2023-05-14T06:34:59.183Z,176.9231
2023-05-14T06:36:00.570Z,176.5385
2023-05-14T06:37:01.973Z,163.0769
2023-05-14T06:38:03.372Z,165.6923
2023-05-14T06:39:04.805Z,176.2308
2023-05-14T06:40:06.269Z,180.4615
2023-05-14T06:41:07.670Z,191.8462
2023-05-14T06:42:09.027Z,200.0000
2023-05-14T06:43:10.585Z,186.7692
2023-05-14T06:44:11.917Z,176.5385
2023-05-14T06:45:13.398Z,184.6923
2023-05-14T06:46:14.760Z,197.1538
2023-05-14T06:47:16.213Z,202.6154
2023-05-14T06:48:17.549Z,213.4615
2023-05-14T06:49:19.024Z,201.8462
2023-05-14T06:50:20.518Z,191.0000
2023-05-14T06:51:21.924Z,194.3077
2023-05-14T06:52:23.353Z,202.3077
2023-05-14T06:53:24.797Z,220.3077
2023-05-14T06:54:26.191Z,218.0000
2023-05-14T06:55:27.602Z,212.3077
2023-05-14T06:56:28.947Z,197.7692
2023-05-14T06:57:30.505Z,206.3077
2023-05-14T06:58:31.769Z,217.0000
2023-05-14T06:59:33.245Z,224.0000
2023-05-14T07:00:34.710Z,225.6923
2023-05-14T07:01:36.234Z,209.2308
2023-05-14T07:02:37.401Z,211.2308
2023-05-14T07:03:39.017Z,224.6923
2023-05-14T07:04:40.392Z,230.7692
2023-05-14T07:05:41.842Z,233.1538
2023-05-14T07:06:43.187Z,215.3846
2023-05-14T07:07:44.629Z,214.3846
2023-05-14T07:08:46.030Z,227.7692
2023-05-14T07:09:47.464Z,238.0769
2023-05-14T07:10:48.929Z,237.3077
2023-05-14T07:11:50.329Z,218.5385
2023-05-14T07:12:51.725Z,221.3077
2023-05-14T07:13:53.244Z,233.3077
2023-05-14T07:14:54.551Z,246.7692
2023-05-14T07:15:56.089Z,235.6154
2023-05-14T07:16:57.523Z,213.4615
2023-05-14T07:17:58.907Z,211.6154
2023-05-14T07:19:00.331Z,220.6154
2023-05-14T07:20:01.833Z,223.4615
2023-05-14T07:21:03.168Z,215.9231
2023-05-14T07:22:04.492Z,193.3846
2023-05-14T07:23:05.902Z,184.9231
2023-05-14T07:24:07.444Z,195.0769
2023-05-14T07:25:08.782Z,201.3077
2023-05-14T07:26:10.287Z,192.3846
2023-05-14T07:27:11.770Z,175.9231
2023-05-14T07:28:13.126Z,173.6923
2023-05-14T07:29:14.406Z,180.2308
2023-05-14T07:30:16.077Z,187.6923
2023-05-14T07:31:17.360Z,191.6154
2023-05-14T07:32:18.781Z,189.3846
2023-05-14T07:33:20.210Z,178.5385
2023-05-14T07:34:21.585Z,167.6154
2023-05-14T07:35:23.022Z,166.0000
2023-05-14T07:36:24.496Z,172.9231
2023-05-14T07:37:25.941Z,175.2308
2023-05-14T07:38:27.350Z,176.6923
2023-05-14T07:39:28.765Z,179.8462
2023-05-14T07:40:30.140Z,181.6923
2023-05-14T07:41:31.661Z,163.7692
2023-05-14T07:42:36.588Z,159.7692
2023-05-14T07:43:34.390Z,166.4615
2023-05-14T07:44:35.834Z,170.5385
2023-05-14T07:45:37.288Z,166.6154
2023-05-14T07:46:38.694Z,171.7692
2023-05-14T07:47:40.152Z,174.7692
2023-05-14T07:48:41.528Z,171.2308
2023-05-14T07:49:42.919Z,155.3846
2023-05-14T07:50:44.358Z,155.7692
2023-05-14T07:51:45.836Z,161.9231
2023-05-14T07:52:47.231Z,163.4615
2023-05-14T07:53:48.624Z,165.8462
2023-05-14T07:54:50.757Z,164.8462
2023-05-14T07:55:51.436Z,168.0000
2023-05-14T07:56:52.889Z,162.0000
2023-05-14T07:57:54.356Z,150.4615
2023-05-14T07:58:55.693Z,150.5385
2023-05-14T07:59:57.073Z,152.9231
2023-05-14T08:00:58.555Z,155.6923
2023-05-14T08:02:00.067Z,160.9231
2023-05-14T08:03:01.459Z,161.9231
2023-05-14T08:04:02.927Z,167.6154
2023-05-14T08:05:04.257Z,160.6154
2023-05-14T08:06:05.728Z,153.7692
2023-05-14T08:07:07.122Z,148.4615
2023-05-14T08:08:08.571Z,151.4615
2023-05-14T08:09:09.894Z,155.6923
2023-05-14T08:10:11.352Z,158.3077
2023-05-14T08:11:12.753Z,162.0000
2023-05-14T08:12:14.222Z,164.6154
2023-05-14T08:13:15.652Z,161.1538
2023-05-14T08:14:16.952Z,148.3846
2023-05-14T08:15:18.434Z,147.7692
2023-05-14T08:16:19.949Z,152.2308
2023-05-14T08:17:21.348Z,155.6923
2023-05-14T08:18:22.765Z,158.0000
2023-05-14T08:19:24.168Z,163.6154
2023-05-14T08:20:25.886Z,165.6923
2023-05-14T08:21:26.969Z,157.9231
2023-05-14T08:22:28.427Z,150.6923
2023-05-14T08:23:29.885Z,152.7692
2023-05-14T08:24:31.328Z,156.9231
2023-05-14T08:25:32.713Z,160.1538
2023-05-14T08:26:34.216Z,167.4615
2023-05-14T08:27:35.597Z,168.2308
2023-05-14T08:28:37.079Z,167.9231
2023-05-14T08:29:38.454Z,157.3846
2023-05-14T08:30:39.806Z,154.6923
2023-05-14T08:31:41.304Z,153.6154
2023-05-14T08:32:42.733Z,157.5385
2023-05-14T08:33:44.173Z,164.2308
2023-05-14T08:34:45.623Z,168.8462
2023-05-14T08:35:46.961Z,174.4615
2023-05-14T08:36:48.401Z,156.0000
2023-05-14T08:37:49.819Z,143.9231
2023-05-14T08:38:51.253Z,140.0769
2023-05-14T08:39:52.680Z,151.2308
2023-05-14T08:40:54.116Z,162.6154
2023-05-14T08:41:55.462Z,169.1538
2023-05-14T08:42:56.960Z,172.6154
2023-05-14T08:43:58.381Z,173.8462
2023-05-14T08:44:59.755Z,152.8462
2023-05-14T08:46:01.217Z,144.0769
2023-05-14T08:47:02.647Z,150.6923
2023-05-14T08:48:04.091Z,158.9231
2023-05-14T08:49:05.593Z,167.8462
2023-05-14T08:50:06.864Z,176.3077
2023-05-14T08:51:08.250Z,183.6154
2023-05-14T08:52:09.640Z,171.5385
2023-05-14T08:53:11.109Z,149.2308
2023-05-14T08:54:12.481Z,152.6923
2023-05-14T08:55:14.051Z,158.9231
2023-05-14T08:56:15.336Z,170.9231
2023-05-14T08:57:16.799Z,176.9231
2023-05-14T08:58:18.136Z,178.8462
2023-05-14T08:59:19.713Z,171.6154
2023-05-14T09:00:21.164Z,150.3077
2023-05-14T09:01:22.582Z,157.0769
2023-05-14T09:02:23.937Z,163.6923
2023-05-14T09:03:25.432Z,168.6154
2023-05-14T09:04:26.818Z,177.0000
2023-05-14T09:05:28.253Z,184.4615
2023-05-14T09:06:29.688Z,173.7692
2023-05-14T09:07:31.024Z,149.6923
2023-05-14T09:08:32.397Z,154.3077
2023-05-14T09:09:33.922Z,158.9231
2023-05-14T09:10:35.344Z,167.8462
2023-05-14T09:11:36.692Z,175.3846
2023-05-14T09:12:38.176Z,179.6154
2023-05-14T09:13:39.574Z,184.6154
2023-05-14T09:14:41.004Z,167.6154
2023-05-14T09:15:42.360Z,151.6923
2023-05-14T09:16:43.886Z,152.0769
2023-05-14T09:17:45.320Z,156.9231
2023-05-14T09:18:46.810Z,169.9231
2023-05-14T09:19:48.205Z,176.3077
2023-05-14T09:20:49.497Z,181.0000
2023-05-14T09:21:50.932Z,179.1538
2023-05-14T09:22:52.364Z,152.7692
2023-05-14T09:23:53.796Z,144.6154
2023-05-14T09:24:55.256Z,153.7692
2023-05-14T09:25:56.748Z,163.0000
2023-05-14T09:26:58.042Z,165.2308
2023-05-14T09:27:59.482Z,176.1538
2023-05-14T09:29:00.764Z,180.6923
2023-05-14T09:30:02.413Z,180.1538
2023-05-14T09:31:03.869Z,160.6154
2023-05-14T09:32:05.353Z,146.7692
2023-05-14T09:33:06.591Z,151.0769
2023-05-14T09:34:08.038Z,156.4615
2023-05-14T09:35:09.520Z,160.9231
2023-05-14T09:36:11.038Z,168.0769
2023-05-14T09:37:12.401Z,172.7692
2023-05-14T09:38:13.869Z,181.2308
2023-05-14T09:39:15.272Z,167.3846
2023-05-14T09:40:16.832Z,142.6154
2023-05-14T09:41:18.108Z,142.8462
2023-05-14T09:42:19.530Z,149.6154
2023-05-14T09:43:20.978Z,158.5385
2023-05-14T09:44:22.374Z,161.4615
2023-05-14T09:45:23.813Z,167.2308
2023-05-14T09:46:25.294Z,174.6923
2023-05-14T09:47:26.706Z,179.6154
2023-05-14T09:48:28.143Z,164.3077
2023-05-14T09:49:29.492Z,145.8462
2023-05-14T09:50:30.976Z,147.0000
2023-05-14T09:51:32.399Z,154.6923
2023-05-14T09:52:33.832Z,166.9231
2023-05-14T09:53:35.287Z,169.0000
2023-05-14T09:54:36.613Z,172.8462
2023-05-14T09:55:38.106Z,177.0769
2023-05-14T09:56:39.627Z,156.7692
2023-05-14T09:57:40.987Z,137.6154
2023-05-14T09:58:42.265Z,152.1538
2023-05-14T09:59:43.837Z,158.4615
2023-05-14T10:00:45.239Z,166.0769
2023-05-14T10:01:46.707Z,169.3846
2023-05-14T10:02:48.144Z,181.3077
2023-05-14T10:03:49.644Z,182.8462
2023-05-14T10:04:50.963Z,158.0000
2023-05-14T10:05:52.462Z,143.9231
2023-05-14T10:06:53.837Z,151.3846
2023-05-14T10:07:55.333Z,160.6154
2023-05-14T10:08:56.613Z,175.6923
2023-05-14T10:09:59.590Z,185.6154
2023-05-14T10:10:59.529Z,184.4615
2023-05-14T10:12:00.965Z,168.7692
2023-05-14T10:13:02.479Z,149.9231
2023-05-14T10:14:03.780Z,154.6154
2023-05-14T10:15:05.158Z,162.3077
2023-05-14T10:16:06.661Z,171.1538
2023-05-14T10:17:08.436Z,187.3846
2023-05-14T10:18:09.710Z,193.6154
2023-05-14T10:19:10.931Z,180.9231
2023-05-14T10:20:12.426Z,157.3077
2023-05-14T10:21:13.767Z,158.7692
2023-05-14T10:22:15.197Z,167.9231
2023-05-14T10:23:16.626Z,178.6923
2023-05-14T10:24:18.116Z,189.0769
2023-05-14T10:25:19.447Z,194.0000
2023-05-14T10:26:23.087Z,193.2308
2023-05-14T10:27:22.380Z,157.7692
2023-05-14T10:28:23.784Z,155.3077
2023-05-14T10:29:25.246Z,170.6923
2023-05-14T10:30:26.889Z,178.6154
2023-05-14T10:31:28.107Z,193.3077
2023-05-14T10:32:29.622Z,196.4615
2023-05-14T10:33:30.921Z,165.9231
2023-05-14T10:34:32.382Z,154.2308
2023-05-14T10:35:33.603Z,165.0000
2023-05-14T10:36:35.190Z,180.6154
2023-05-14T10:37:36.630Z,191.7692
2023-05-14T10:38:38.067Z,202.7692
2023-05-14T10:39:39.505Z,197.1538
2023-05-14T10:40:40.864Z,166.3077
2023-05-14T10:41:42.288Z,155.1538
2023-05-14T10:42:43.734Z,170.4615
2023-05-14T10:43:45.167Z,181.9231
2023-05-14T10:44:46.611Z,192.1538
2023-05-14T10:45:47.949Z,194.5385
2023-05-14T10:46:49.467Z,172.0000
2023-05-14T10:47:51.045Z,155.0769
2023-05-14T10:48:52.337Z,165.1538
2023-05-14T10:49:53.700Z,177.0000
2023-05-14T10:50:55.209Z,190.8462
2023-05-14T10:51:56.527Z,202.2308
2023-05-14T10:52:57.941Z,190.5385
2023-05-14T10:53:59.371Z,162.6923
2023-05-14T10:55:03.189Z,159.6923
2023-05-14T10:56:02.250Z,167.1538
2023-05-14T10:57:03.531Z,179.1538
2023-05-14T10:58:05.211Z,194.1538
2023-05-14T10:59:06.663Z,201.0769
2023-05-14T11:00:08.664Z,182.0000
2023-05-14T11:01:09.343Z,163.8462
2023-05-14T11:02:10.868Z,164.6923
2023-05-14T11:03:12.417Z,174.3846
2023-05-14T11:04:13.795Z,187.0000
2023-05-14T11:05:15.069Z,200.3846
2023-05-14T11:06:16.541Z,191.5385
2023-05-14T11:07:17.934Z,166.0000
2023-05-14T11:08:19.358Z,167.6923
2023-05-14T11:09:20.812Z,176.8462
2023-05-14T11:10:22.510Z,186.7692
2023-05-14T11:11:23.615Z,194.4615
2023-05-14T11:12:25.010Z,195.6923
2023-05-14T11:13:26.291Z,170.6154
2023-05-14T11:14:27.887Z,162.6923
2023-05-14T11:15:29.342Z,171.3077
2023-05-14T11:16:30.691Z,185.6923
2023-05-14T11:17:32.202Z,188.9231
2023-05-14T11:18:33.643Z,194.3846
2023-05-14T11:19:35.015Z,190.9231
2023-05-14T11:20:36.362Z,170.0769
2023-05-14T11:21:37.879Z,162.6154
2023-05-14T11:22:39.186Z,171.1538
2023-05-14T11:23:40.723Z,181.9231
2023-05-14T11:24:42.286Z,189.0769
2023-05-14T11:25:43.602Z,199.1538
2023-05-14T11:26:44.930Z,194.9231
2023-05-14T11:27:46.354Z,173.3846
2023-05-14T11:28:47.776Z,169.6923
2023-05-14T11:29:49.210Z,173.2308
2023-05-14T11:30:50.676Z,186.1538
2023-05-14T11:31:52.164Z,194.7692
2023-05-14T11:32:53.399Z,202.6923
2023-05-14T11:33:54.927Z,190.9231
2023-05-14T11:34:56.343Z,173.4615
2023-05-14T11:35:57.798Z,175.7692
2023-05-14T11:36:59.297Z,184.7692
2023-05-14T11:38:00.654Z,192.6923
2023-05-14T11:39:01.992Z,198.8462
2023-05-14T11:40:03.503Z,198.1538
2023-05-14T11:41:04.831Z,182.3077
2023-05-14T11:42:06.290Z,179.8462
2023-05-14T11:43:07.677Z,184.4615
2023-05-14T11:44:09.269Z,194.0769
2023-05-14T11:45:10.636Z,202.7692
2023-05-14T11:46:12.036Z,179.5385
2023-05-14T11:47:13.357Z,161.6923
2023-05-14T11:48:14.852Z,169.4615
2023-05-14T11:49:16.184Z,180.8462
2023-05-14T11:50:17.652Z,192.8462
2023-05-14T11:51:19.183Z,197.2308
2023-05-14T11:52:20.542Z,201.2308
2023-05-14T11:53:22.093Z,184.2308
2023-05-14T11:54:23.308Z,176.8462
2023-05-14T11:55:24.771Z,178.6923
2023-05-14T11:56:26.301Z,189.8462
2023-05-14T11:57:27.664Z,197.6923
2023-05-14T11:58:29.068Z,204.6154
2023-05-14T11:59:30.434Z,195.0769
2023-05-14T12:00:31.882Z,186.8462
2023-05-14T12:01:33.338Z,185.6154
2023-05-14T12:02:34.863Z,181.6154
2023-05-14T12:03:36.103Z,192.6154
2023-05-14T12:04:37.613Z,199.1538
2023-05-14T12:05:39.004Z,201.6154
2023-05-14T12:06:40.374Z,199.7692
2023-05-14T12:07:42.027Z,185.6154
2023-05-14T12:08:43.149Z,182.2308
2023-05-14T12:09:45.464Z,188.0769
2023-05-14T12:10:46.103Z,190.7692
2023-05-14T12:11:47.547Z,201.8462
2023-05-14T12:12:48.999Z,198.2308